SWA869 KPHX-KLAX
Flight info
| Callsign | SWA869 |
|---|---|
| Flight time | 1h 4m |
| Altitude | 36000 |
| Route | KEENS3 WLVRN ESTWD HLYWD1 |
| Aircraft | B738/M-SDE2E3FGHIRWXY/LB1 |
Departure
| Time | 2026-04-26 16:06 |
|---|---|
| Airport | Phoenix Sky Harbor International Airport (KPHX) |
Arrival
| Time | 2026-04-26 17:10 |
|---|---|
| Airport | Los Angeles International Airport (KLAX) |
| Time | Latitude | Longitude | Altitude | Speed | Heading |
|---|---|---|---|---|---|
| 2026-04-26 15:53 | 33.43713 | -111.99984 | 1133 ft | 0 kts | 90° |
| 2026-04-26 15:56 | 33.43714 | -111.99983 | 1133 ft | 0 kts | 65° |
| 2026-04-26 15:56 | 33.43724 | -111.99989 | 1133 ft | 2 kts | 307° |
| 2026-04-26 15:56 | 33.43744 | -112.00019 | 1133 ft | 7 kts | 322° |
| 2026-04-26 15:57 | 33.43793 | -112.00034 | 1134 ft | 11 kts | 358° |
| 2026-04-26 15:57 | 33.43858 | -112.00031 | 1134 ft | 9 kts | 359° |
| 2026-04-26 15:57 | 33.43902 | -111.99990 | 1135 ft | 10 kts | 79° |
| 2026-04-26 15:57 | 33.43904 | -111.99939 | 1135 ft | 4 kts | 90° |
| 2026-04-26 15:58 | 33.43904 | -111.99937 | 1135 ft | 0 kts | 90° |
| 2026-04-26 15:58 | 33.43903 | -111.99909 | 1135 ft | 8 kts | 91° |
| 2026-04-26 15:59 | 33.43901 | -111.99641 | 1135 ft | 14 kts | 89° |
| 2026-04-26 15:59 | 33.43902 | -111.99519 | 1135 ft | 16 kts | 90° |
| 2026-04-26 15:59 | 33.43901 | -111.99365 | 1136 ft | 13 kts | 90° |
| 2026-04-26 16:00 | 33.43854 | -111.99294 | 1136 ft | 12 kts | 158° |
| 2026-04-26 16:00 | 33.43810 | -111.99272 | 1135 ft | 12 kts | 158° |
| 2026-04-26 16:00 | 33.43802 | -111.99268 | 1135 ft | 12 kts | 159° |
| 2026-04-26 16:00 | 33.43714 | -111.99235 | 1134 ft | 13 kts | 171° |
| 2026-04-26 16:01 | 33.43617 | -111.99229 | 1132 ft | 14 kts | 180° |
| 2026-04-26 16:01 | 33.43519 | -111.99229 | 1132 ft | 13 kts | 180° |
| 2026-04-26 16:01 | 33.43415 | -111.99229 | 1132 ft | 16 kts | 180° |
| 2026-04-26 16:01 | 33.43304 | -111.99232 | 1131 ft | 10 kts | 180° |
| 2026-04-26 16:02 | 33.43257 | -111.99233 | 1130 ft | 6 kts | 192° |
| 2026-04-26 16:02 | 33.43213 | -111.99261 | 1130 ft | 7 kts | 227° |
| 2026-04-26 16:02 | 33.43183 | -111.99293 | 1130 ft | 0 kts | 222° |
| 2026-04-26 16:03 | 33.43156 | -111.99322 | 1129 ft | 11 kts | 225° |
| 2026-04-26 16:03 | 33.43109 | -111.99415 | 1129 ft | 13 kts | 258° |
| 2026-04-26 16:04 | 33.43103 | -111.99470 | 1129 ft | 0 kts | 270° |
| 2026-04-26 16:05 | 33.43103 | -111.99480 | 1129 ft | 6 kts | 270° |
| 2026-04-26 16:05 | 33.43103 | -111.99738 | 1128 ft | 62 kts | 270° |
| 2026-04-26 16:05 | 33.43104 | -112.00513 | 1130 ft | 119 kts | 270° |
| 2026-04-26 16:06 | 33.43105 | -112.01701 | 1141 ft | 161 kts | 270° |
| 2026-04-26 16:06 | 33.43208 | -112.03060 | 1578 ft | 166 kts | 270° |
| 2026-04-26 16:06 | 33.43125 | -112.04423 | 2116 ft | 172 kts | 260° |
| 2026-04-26 16:06 | 33.42975 | -112.05919 | 2647 ft | 181 kts | 263° |
| 2026-04-26 16:07 | 33.42847 | -112.07459 | 3098 ft | 193 kts | 258° |
| 2026-04-26 16:07 | 33.42438 | -112.09061 | 3474 ft | 212 kts | 248° |
| 2026-04-26 16:07 | 33.41849 | -112.10774 | 3954 ft | 228 kts | 248° |
| 2026-04-26 16:07 | 33.41255 | -112.12566 | 4481 ft | 241 kts | 249° |
| 2026-04-26 16:08 | 33.40650 | -112.14490 | 5042 ft | 252 kts | 249° |
| 2026-04-26 16:08 | 33.40246 | -112.15801 | 5484 ft | 256 kts | 249° |
| 2026-04-26 16:08 | 33.39429 | -112.18503 | 6530 ft | 259 kts | 252° |
| 2026-04-26 16:08 | 33.39114 | -112.20607 | 7307 ft | 264 kts | 268° |
| 2026-04-26 16:09 | 33.39337 | -112.22786 | 8127 ft | 267 kts | 278° |
| 2026-04-26 16:09 | 33.39735 | -112.24973 | 8910 ft | 271 kts | 278° |
| 2026-04-26 16:09 | 33.40131 | -112.27174 | 9717 ft | 273 kts | 277° |
| 2026-04-26 16:09 | 33.40495 | -112.29408 | 10502 ft | 277 kts | 276° |
| 2026-04-26 16:10 | 33.40839 | -112.31686 | 11060 ft | 289 kts | 276° |
| 2026-04-26 16:10 | 33.41195 | -112.34126 | 11621 ft | 302 kts | 275° |
| 2026-04-26 16:10 | 33.41559 | -112.36624 | 12190 ft | 314 kts | 276° |
| 2026-04-26 16:10 | 33.41946 | -112.39249 | 12952 ft | 320 kts | 276° |
| 2026-04-26 16:11 | 33.42331 | -112.41833 | 13852 ft | 320 kts | 276° |
| 2026-04-26 16:11 | 33.42725 | -112.44479 | 14774 ft | 321 kts | 276° |
| 2026-04-26 16:11 | 33.43113 | -112.47092 | 15696 ft | 321 kts | 276° |
| 2026-04-26 16:11 | 33.43500 | -112.49712 | 16595 ft | 321 kts | 275° |
| 2026-04-26 16:12 | 33.43884 | -112.52322 | 17421 ft | 322 kts | 275° |
| 2026-04-26 16:12 | 33.44271 | -112.54967 | 18265 ft | 322 kts | 275° |
| 2026-04-26 16:12 | 33.44988 | -112.60280 | 19779 ft | 324 kts | 271° |
| 2026-04-26 16:13 | 33.45143 | -112.63052 | 20565 ft | 323 kts | 268° |
| 2026-04-26 16:13 | 33.45184 | -112.65780 | 21360 ft | 322 kts | 265° |
| 2026-04-26 16:13 | 33.45193 | -112.68510 | 22115 ft | 323 kts | 265° |
| 2026-04-26 16:13 | 33.45201 | -112.71191 | 22792 ft | 325 kts | 265° |
| 2026-04-26 16:14 | 33.45218 | -112.73894 | 23464 ft | 327 kts | 265° |
| 2026-04-26 16:14 | 33.45254 | -112.76611 | 24113 ft | 329 kts | 266° |
| 2026-04-26 16:14 | 33.45964 | -112.82059 | 25332 ft | 344 kts | 279° |
| 2026-04-26 16:15 | 33.46789 | -112.84765 | 25939 ft | 349 kts | 282° |
| 2026-04-26 16:15 | 33.47739 | -112.87470 | 26506 ft | 353 kts | 284° |
| 2026-04-26 16:15 | 33.48725 | -112.90160 | 26991 ft | 357 kts | 283° |
| 2026-04-26 16:16 | 33.50726 | -112.95657 | 28156 ft | 359 kts | 283° |
| 2026-04-26 16:16 | 33.51711 | -112.98411 | 28643 ft | 361 kts | 283° |
| 2026-04-26 16:16 | 33.52689 | -113.01174 | 29141 ft | 363 kts | 283° |
| 2026-04-26 16:16 | 33.53674 | -113.03966 | 29698 ft | 363 kts | 282° |
| 2026-04-26 16:17 | 33.54652 | -113.06772 | 30080 ft | 367 kts | 282° |
| 2026-04-26 16:17 | 33.55631 | -113.09576 | 30723 ft | 364 kts | 282° |
| 2026-04-26 16:17 | 33.56596 | -113.12323 | 31471 ft | 357 kts | 282° |
| 2026-04-26 16:17 | 33.57554 | -113.15057 | 32090 ft | 353 kts | 282° |
| 2026-04-26 16:18 | 33.58500 | -113.17772 | 32632 ft | 351 kts | 281° |
| 2026-04-26 16:18 | 33.60362 | -113.23147 | 33560 ft | 349 kts | 282° |
| 2026-04-26 16:19 | 33.62235 | -113.28567 | 34347 ft | 348 kts | 281° |
| 2026-04-26 16:19 | 33.63172 | -113.31290 | 34619 ft | 350 kts | 282° |
| 2026-04-26 16:19 | 33.64735 | -113.35826 | 35151 ft | 351 kts | 282° |
| 2026-04-26 16:20 | 33.65989 | -113.39459 | 35610 ft | 350 kts | 282° |
| 2026-04-26 16:20 | 33.67881 | -113.44944 | 35907 ft | 353 kts | 282° |
| 2026-04-26 16:20 | 33.68821 | -113.47677 | 35910 ft | 353 kts | 283° |
| 2026-04-26 16:21 | 33.70683 | -113.53072 | 35906 ft | 349 kts | 282° |
| 2026-04-26 16:21 | 33.72550 | -113.58523 | 35899 ft | 351 kts | 283° |
| 2026-04-26 16:22 | 33.74415 | -113.63971 | 35891 ft | 352 kts | 282° |
| 2026-04-26 16:22 | 33.76291 | -113.69449 | 35890 ft | 349 kts | 282° |
| 2026-04-26 16:23 | 33.78160 | -113.74921 | 35891 ft | 350 kts | 282° |
| 2026-04-26 16:23 | 33.80002 | -113.80327 | 35893 ft | 351 kts | 282° |
| 2026-04-26 16:24 | 33.81864 | -113.85799 | 35887 ft | 351 kts | 282° |
| 2026-04-26 16:24 | 33.83708 | -113.91221 | 35890 ft | 351 kts | 282° |
| 2026-04-26 16:25 | 33.85553 | -113.96658 | 35885 ft | 353 kts | 282° |
| 2026-04-26 16:25 | 33.87405 | -114.02119 | 35883 ft | 351 kts | 282° |
| 2026-04-26 16:26 | 33.88948 | -114.06678 | 35883 ft | 353 kts | 282° |
| 2026-04-26 16:26 | 33.90831 | -114.13135 | 35883 ft | 344 kts | 276° |
| 2026-04-26 16:27 | 33.91840 | -114.18725 | 35881 ft | 341 kts | 274° |
| 2026-04-26 16:27 | 33.92759 | -114.24355 | 35875 ft | 341 kts | 274° |
| 2026-04-26 16:28 | 33.93693 | -114.29991 | 35875 ft | 345 kts | 274° |
| 2026-04-26 16:28 | 33.94648 | -114.35661 | 35877 ft | 343 kts | 274° |
| 2026-04-26 16:29 | 33.95594 | -114.41283 | 35876 ft | 342 kts | 274° |
| 2026-04-26 16:29 | 33.96537 | -114.46898 | 35874 ft | 345 kts | 274° |
| 2026-04-26 16:30 | 33.97490 | -114.52589 | 35872 ft | 344 kts | 274° |
| 2026-04-26 16:30 | 33.98448 | -114.58306 | 35877 ft | 343 kts | 274° |
| 2026-04-26 16:31 | 33.99410 | -114.64099 | 35884 ft | 347 kts | 274° |
| 2026-04-26 16:31 | 34.00369 | -114.69884 | 35884 ft | 347 kts | 273° |
| 2026-04-26 16:32 | 34.01152 | -114.74623 | 35892 ft | 345 kts | 274° |
| 2026-04-26 16:32 | 34.02250 | -114.81271 | 35898 ft | 347 kts | 273° |
| 2026-04-26 16:33 | 34.03192 | -114.87001 | 35896 ft | 345 kts | 274° |
| 2026-04-26 16:33 | 34.04131 | -114.92701 | 35888 ft | 346 kts | 274° |
| 2026-04-26 16:34 | 34.05065 | -114.98434 | 35897 ft | 350 kts | 274° |
| 2026-04-26 16:34 | 34.06012 | -115.04231 | 35890 ft | 350 kts | 274° |
| 2026-04-26 16:35 | 34.06948 | -115.09965 | 35889 ft | 350 kts | 274° |
| 2026-04-26 16:35 | 34.07885 | -115.15737 | 35878 ft | 348 kts | 274° |
| 2026-04-26 16:36 | 34.08816 | -115.21491 | 35886 ft | 352 kts | 274° |
| 2026-04-26 16:36 | 34.09752 | -115.27294 | 35882 ft | 352 kts | 274° |
| 2026-04-26 16:37 | 34.10702 | -115.33180 | 35884 ft | 351 kts | 274° |
| 2026-04-26 16:37 | 34.11625 | -115.38942 | 35883 ft | 353 kts | 274° |
| 2026-04-26 16:38 | 34.12559 | -115.44795 | 35884 ft | 351 kts | 275° |
| 2026-04-26 16:38 | 34.13485 | -115.50590 | 35900 ft | 352 kts | 274° |
| 2026-04-26 16:39 | 34.14410 | -115.56419 | 35892 ft | 352 kts | 275° |
| 2026-04-26 16:39 | 34.15331 | -115.62241 | 35894 ft | 354 kts | 275° |
| 2026-04-26 16:40 | 34.16098 | -115.68208 | 35905 ft | 352 kts | 268° |
| 2026-04-26 16:40 | 34.15965 | -115.74039 | 35896 ft | 344 kts | 261° |
| 2026-04-26 16:41 | 34.15399 | -115.79781 | 35885 ft | 348 kts | 259° |
| 2026-04-26 16:41 | 34.14797 | -115.85606 | 35896 ft | 347 kts | 259° |
| 2026-04-26 16:42 | 34.14218 | -115.91414 | 35902 ft | 346 kts | 261° |
| 2026-04-26 16:42 | 34.13640 | -115.97285 | 35610 ft | 352 kts | 260° |
| 2026-04-26 16:43 | 34.13349 | -116.00240 | 35375 ft | 348 kts | 260° |
| 2026-04-26 16:43 | 34.13065 | -116.03152 | 35137 ft | 342 kts | 259° |
| 2026-04-26 16:43 | 34.12794 | -116.05958 | 34799 ft | 336 kts | 260° |
| 2026-04-26 16:43 | 34.12524 | -116.08730 | 34433 ft | 331 kts | 260° |
| 2026-04-26 16:44 | 34.12252 | -116.11505 | 34056 ft | 330 kts | 259° |
| 2026-04-26 16:44 | 34.11978 | -116.14265 | 33666 ft | 332 kts | 260° |
| 2026-04-26 16:44 | 34.11706 | -116.17014 | 33259 ft | 328 kts | 260° |
| 2026-04-26 16:44 | 34.11437 | -116.19737 | 32860 ft | 324 kts | 260° |
| 2026-04-26 16:45 | 34.11166 | -116.22456 | 32463 ft | 326 kts | 261° |
| 2026-04-26 16:45 | 34.10895 | -116.25164 | 32065 ft | 329 kts | 261° |
| 2026-04-26 16:45 | 34.10619 | -116.27921 | 31669 ft | 327 kts | 260° |
| 2026-04-26 16:45 | 34.10348 | -116.30620 | 31272 ft | 325 kts | 260° |
| 2026-04-26 16:46 | 34.10066 | -116.33335 | 30863 ft | 323 kts | 261° |
| 2026-04-26 16:46 | 34.09779 | -116.36024 | 30478 ft | 320 kts | 261° |
| 2026-04-26 16:46 | 34.09493 | -116.38672 | 30090 ft | 319 kts | 261° |
| 2026-04-26 16:46 | 34.09206 | -116.41319 | 29675 ft | 319 kts | 261° |
| 2026-04-26 16:47 | 34.08916 | -116.44012 | 29274 ft | 319 kts | 261° |
| 2026-04-26 16:47 | 34.08628 | -116.46677 | 28886 ft | 318 kts | 261° |
| 2026-04-26 16:47 | 34.08345 | -116.49301 | 28504 ft | 318 kts | 261° |
| 2026-04-26 16:47 | 34.08060 | -116.51932 | 28120 ft | 316 kts | 261° |
| 2026-04-26 16:48 | 34.07777 | -116.54563 | 27725 ft | 316 kts | 261° |
| 2026-04-26 16:48 | 34.07492 | -116.57191 | 27329 ft | 316 kts | 261° |
| 2026-04-26 16:48 | 34.07210 | -116.59824 | 26949 ft | 317 kts | 262° |
| 2026-04-26 16:48 | 34.06953 | -116.62453 | 26546 ft | 318 kts | 262° |
| 2026-04-26 16:49 | 34.06709 | -116.65118 | 26141 ft | 316 kts | 262° |
| 2026-04-26 16:49 | 34.06473 | -116.67737 | 25748 ft | 315 kts | 262° |
| 2026-04-26 16:49 | 34.06235 | -116.70375 | 25354 ft | 315 kts | 263° |
| 2026-04-26 16:49 | 34.05992 | -116.73021 | 24951 ft | 316 kts | 262° |
| 2026-04-26 16:50 | 34.05751 | -116.75637 | 24554 ft | 316 kts | 263° |
| 2026-04-26 16:50 | 34.05507 | -116.78263 | 24154 ft | 314 kts | 263° |
| 2026-04-26 16:50 | 34.05267 | -116.80874 | 23777 ft | 318 kts | 263° |
| 2026-04-26 16:50 | 34.05018 | -116.83583 | 23369 ft | 330 kts | 263° |
| 2026-04-26 16:51 | 34.04756 | -116.86343 | 22945 ft | 326 kts | 263° |
| 2026-04-26 16:51 | 34.04494 | -116.89058 | 22539 ft | 321 kts | 263° |
| 2026-04-26 16:51 | 34.04196 | -116.91677 | 22152 ft | 316 kts | 262° |
| 2026-04-26 16:51 | 34.03859 | -116.94267 | 21748 ft | 311 kts | 261° |
| 2026-04-26 16:52 | 34.03509 | -116.96840 | 21362 ft | 306 kts | 261° |
| 2026-04-26 16:52 | 34.03283 | -116.98505 | 21111 ft | 303 kts | 261° |
| 2026-04-26 16:52 | 34.02837 | -117.01828 | 20628 ft | 302 kts | 261° |
| 2026-04-26 16:52 | 34.02510 | -117.04339 | 20244 ft | 299 kts | 262° |
| 2026-04-26 16:53 | 34.02211 | -117.06806 | 19875 ft | 298 kts | 263° |
| 2026-04-26 16:53 | 34.01917 | -117.09312 | 19500 ft | 296 kts | 263° |
| 2026-04-26 16:53 | 34.01627 | -117.11794 | 19114 ft | 295 kts | 263° |
| 2026-04-26 16:53 | 34.01341 | -117.14236 | 18738 ft | 294 kts | 263° |
| 2026-04-26 16:54 | 34.01054 | -117.16671 | 18360 ft | 294 kts | 263° |
| 2026-04-26 16:54 | 34.00768 | -117.19082 | 18002 ft | 292 kts | 263° |
| 2026-04-26 16:54 | 34.00477 | -117.21528 | 17629 ft | 289 kts | 263° |
| 2026-04-26 16:54 | 34.00193 | -117.23908 | 17240 ft | 289 kts | 263° |
| 2026-04-26 16:55 | 33.99906 | -117.26305 | 16867 ft | 286 kts | 263° |
| 2026-04-26 16:55 | 33.99622 | -117.28662 | 16507 ft | 285 kts | 263° |
| 2026-04-26 16:55 | 33.99337 | -117.31033 | 16141 ft | 284 kts | 263° |
| 2026-04-26 16:55 | 33.99060 | -117.33373 | 15773 ft | 283 kts | 263° |
| 2026-04-26 16:56 | 33.98510 | -117.38075 | 15048 ft | 280 kts | 264° |
| 2026-04-26 16:56 | 33.98236 | -117.40411 | 14685 ft | 279 kts | 264° |
| 2026-04-26 16:56 | 33.97965 | -117.42725 | 14322 ft | 279 kts | 264° |
| 2026-04-26 16:57 | 33.97699 | -117.45008 | 13971 ft | 278 kts | 263° |
| 2026-04-26 16:57 | 33.97468 | -117.47339 | 13619 ft | 275 kts | 268° |
| 2026-04-26 16:57 | 33.97765 | -117.51878 | 12914 ft | 272 kts | 285° |
| 2026-04-26 16:58 | 33.98336 | -117.54057 | 12556 ft | 273 kts | 288° |
| 2026-04-26 16:58 | 33.98745 | -117.55527 | 12321 ft | 272 kts | 288° |
| 2026-04-26 16:58 | 34.00049 | -117.60574 | 11504 ft | 268 kts | 286° |
| 2026-04-26 16:59 | 34.00568 | -117.62737 | 11158 ft | 266 kts | 285° |
| 2026-04-26 16:59 | 34.01560 | -117.66995 | 10476 ft | 265 kts | 285° |
| 2026-04-26 17:00 | 34.02205 | -117.71297 | 9931 ft | 261 kts | 268° |
| 2026-04-26 17:00 | 34.02002 | -117.73617 | 9628 ft | 266 kts | 263° |
| 2026-04-26 17:00 | 34.01722 | -117.75828 | 9281 ft | 263 kts | 262° |
| 2026-04-26 17:01 | 34.01460 | -117.77985 | 8954 ft | 260 kts | 263° |
| 2026-04-26 17:01 | 34.01226 | -117.80138 | 8635 ft | 254 kts | 264° |
| 2026-04-26 17:01 | 34.01018 | -117.82230 | 8323 ft | 248 kts | 264° |
| 2026-04-26 17:01 | 34.00827 | -117.84270 | 8022 ft | 243 kts | 264° |
| 2026-04-26 17:02 | 34.00634 | -117.86262 | 7716 ft | 240 kts | 264° |
| 2026-04-26 17:02 | 34.00434 | -117.88264 | 7418 ft | 239 kts | 264° |
| 2026-04-26 17:02 | 34.00237 | -117.90249 | 7119 ft | 240 kts | 264° |
| 2026-04-26 17:02 | 34.00041 | -117.92236 | 6900 ft | 237 kts | 264° |
| 2026-04-26 17:03 | 33.99847 | -117.94222 | 6590 ft | 240 kts | 264° |
| 2026-04-26 17:03 | 33.99653 | -117.96194 | 6332 ft | 238 kts | 264° |
| 2026-04-26 17:03 | 33.99459 | -117.98175 | 6071 ft | 237 kts | 264° |
| 2026-04-26 17:03 | 33.99264 | -118.00145 | 5893 ft | 236 kts | 264° |
| 2026-04-26 17:04 | 33.99069 | -118.02114 | 5656 ft | 237 kts | 264° |
| 2026-04-26 17:04 | 33.98871 | -118.04098 | 5449 ft | 235 kts | 264° |
| 2026-04-26 17:04 | 33.98681 | -118.06042 | 5250 ft | 235 kts | 264° |
| 2026-04-26 17:04 | 33.98481 | -118.08015 | 5046 ft | 235 kts | 264° |
| 2026-04-26 17:05 | 33.98280 | -118.09946 | 4849 ft | 235 kts | 264° |
| 2026-04-26 17:05 | 33.98080 | -118.11918 | 4650 ft | 234 kts | 264° |
| 2026-04-26 17:05 | 33.97888 | -118.13844 | 4524 ft | 227 kts | 264° |
| 2026-04-26 17:05 | 33.97700 | -118.15724 | 4200 ft | 227 kts | 264° |
| 2026-04-26 17:06 | 33.97512 | -118.17593 | 3902 ft | 222 kts | 264° |
| 2026-04-26 17:06 | 33.97326 | -118.19437 | 3572 ft | 219 kts | 263° |
| 2026-04-26 17:06 | 33.97144 | -118.21240 | 3261 ft | 216 kts | 263° |
| 2026-04-26 17:06 | 33.96965 | -118.23010 | 2971 ft | 211 kts | 263° |
| 2026-04-26 17:07 | 33.96790 | -118.24742 | 2677 ft | 198 kts | 263° |
| 2026-04-26 17:07 | 33.96634 | -118.26276 | 2423 ft | 180 kts | 264° |
| 2026-04-26 17:07 | 33.96488 | -118.27711 | 2185 ft | 165 kts | 264° |
| 2026-04-26 17:07 | 33.96355 | -118.29018 | 2034 ft | 145 kts | 264° |
| 2026-04-26 17:08 | 33.96236 | -118.30193 | 1781 ft | 142 kts | 264° |
| 2026-04-26 17:08 | 33.96118 | -118.31345 | 1580 ft | 138 kts | 264° |
| 2026-04-26 17:08 | 33.96002 | -118.32485 | 1414 ft | 140 kts | 263° |
| 2026-04-26 17:08 | 33.95883 | -118.33645 | 1221 ft | 138 kts | 263° |
| 2026-04-26 17:09 | 33.95764 | -118.34804 | 1031 ft | 138 kts | 263° |
| 2026-04-26 17:09 | 33.95688 | -118.35558 | 880 ft | 133 kts | 263° |
| 2026-04-26 17:09 | 33.95536 | -118.36983 | 605 ft | 130 kts | 264° |
| 2026-04-26 17:09 | 33.95432 | -118.38105 | 483 ft | 137 kts | 263° |
| 2026-04-26 17:10 | 33.95316 | -118.39246 | 317 ft | 139 kts | 263° |
| 2026-04-26 17:10 | 33.95189 | -118.40406 | 122 ft | 140 kts | 263° |
| 2026-04-26 17:10 | 33.95092 | -118.41373 | 124 ft | 81 kts | 262° |
| 2026-04-26 17:10 | 33.95038 | -118.41885 | 122 ft | 44 kts | 262° |
| 2026-04-26 17:11 | 33.94990 | -118.42124 | 120 ft | 23 kts | 246° |
| 2026-04-26 17:11 | 33.94900 | -118.42246 | 118 ft | 19 kts | 227° |
| 2026-04-26 17:11 | 33.94801 | -118.42281 | 117 ft | 11 kts | 153° |
| 2026-04-26 17:11 | 33.94725 | -118.42273 | 117 ft | 7 kts | 178° |
| 2026-04-26 17:12 | 33.94687 | -118.42198 | 117 ft | 8 kts | 82° |
| 2026-04-26 17:12 | 33.94700 | -118.42082 | 119 ft | 20 kts | 82° |
| 2026-04-26 17:13 | 33.94749 | -118.41598 | 122 ft | 30 kts | 83° |
| 2026-04-26 17:13 | 33.94785 | -118.41354 | 123 ft | 29 kts | 81° |
| 2026-04-26 17:13 | 33.94834 | -118.40889 | 124 ft | 22 kts | 83° |
| 2026-04-26 17:14 | 33.94850 | -118.40736 | 123 ft | 18 kts | 85° |
| 2026-04-26 17:14 | 33.94800 | -118.40593 | 122 ft | 9 kts | 171° |
| 2026-04-26 17:14 | 33.94740 | -118.40582 | 122 ft | 7 kts | 173° |
| 2026-04-26 17:15 | 33.94670 | -118.40539 | 122 ft | 5 kts | 104° |
| 2026-04-26 17:15 | 33.94664 | -118.40507 | 122 ft | 2 kts | 102° |
| 2026-04-26 17:15 | 33.94661 | -118.40494 | 122 ft | 0 kts | 103° |